Terminal Aerodrome Forecast
Issued by NWS

Home | Current Version | Previous Version | Text Only | Print | Product List | Glossary Off
Versions: 1 2 3 4 5 6 7 8 9 10 11 12 13 14 15 16 17 18 19 20 21 22 23 24 25 26 27 28

722
FTUS43 KLOT 242320
TAFORD
TAF
KORD 242320Z 2500/2606 03012G18KT P6SM SCT070 OVC090
     FM250200 03012KT 6SM HZ FEW007 OVC060
     FM250500 03011KT 3SM -SHRA BR SCT004 OVC007
     FM250800 04010KT 2SM -SHRA BR SCT002 OVC004
      TEMPO 2511/2515 1SM -DZ BR OVC003
     FM251600 08013KT 3SM -RADZ BR OVC004
     FM252100 08013KT 4SM -RADZ BR OVC007=

USA.gov is the U.S. government's official web portal to all federal, state and local government web resources and services.